Time;durP1;ratioP1;P1;durP2;ratioP2;P2;SDS_P1;SDS_P2;PMS_P1;PMS_P2;Temp;Humidity;BMP_temperature;BMP_pressure;BME280_temperature;BME280_humidity;BME280_pressure;Samples;Min_cycle;Max_cycle;Signal;HPM_P1;HPM_P2
2023/04/19 00:01:53;;;;;;;11.68;8.32;;;;;;;;;;4995905;28;25072;-78
2023/04/19 00:04:19;;;;;;;15.65;8.68;;;;;;;;;;5023040;28;25068;-76
2023/04/19 00:06:46;;;;;;;13.70;8.82;;;;;;;;;;5014190;28;25086;-77
2023/04/19 00:09:12;;;;;;;15.20;9.30;;;;;;;;;;5020189;28;25073;-77
2023/04/19 00:11:38;;;;;;;13.73;8.63;;;;;;;;;;5024682;28;25063;-78
2023/04/19 00:14:04;;;;;;;13.43;9.00;;;;;;;;;;5018312;28;25092;-77
2023/04/19 00:16:30;;;;;;;13.85;8.73;;;;;;;;;;5020461;28;25150;-80
2023/04/19 00:18:56;;;;;;;15.82;8.75;;;;;;;;;;5017950;28;25105;-76
2023/04/19 00:21:22;;;;;;;15.98;8.52;;;;;;;;;;5018669;28;25072;-78
2023/04/19 00:23:48;;;;;;;14.95;9.40;;;;;;;;;;5013851;28;25079;-77
2023/04/19 00:26:17;;;;;;;13.38;8.43;;;;;;;;;;4995512;28;25064;-78
2023/04/19 00:28:44;;;;;;;15.45;9.77;;;;;;;;;;5012512;28;25116;-78
2023/04/19 00:31:10;;;;;;;15.40;9.13;;;;;;;;;;5012665;28;25063;-82
2023/04/19 00:33:36;;;;;;;14.57;9.15;;;;;;;;;;5017764;28;25135;-75
2023/04/19 00:36:02;;;;;;;17.05;9.68;;;;;;;;;;5021848;28;25055;-76
2023/04/19 00:38:32;;;;;;;15.85;9.55;;;;;;;;;;5016134;28;25170;-78
2023/04/19 00:41:01;;;;;;;14.90;9.45;;;;;;;;;;5013513;28;25090;-79
2023/04/19 00:43:27;;;;;;;17.60;10.50;;;;;;;;;;5019359;28;25073;-76
2023/04/19 00:45:53;;;;;;;19.83;9.85;;;;;;;;;;5014434;28;25064;-78
2023/04/19 00:48:19;;;;;;;16.83;9.48;;;;;;;;;;5011173;28;25086;-77
2023/04/19 00:50:45;;;;;;;15.70;9.88;;;;;;;;;;5015432;28;25086;-74
2023/04/19 00:53:11;;;;;;;17.33;10.27;;;;;;;;;;5021886;28;25068;-75
2023/04/19 00:55:40;;;;;;;13.73;9.38;;;;;;;;;;5015370;28;25097;-77
2023/04/19 00:58:07;;;;;;;15.35;9.88;;;;;;;;;;5013414;28;25066;-77
2023/04/19 01:00:34;;;;;;;19.45;9.60;;;;;;;;;;5016810;28;25084;-77
2023/04/19 01:03:00;;;;;;;17.05;10.30;;;;;;;;;;5010292;28;25062;-79
2023/04/19 01:05:26;;;;;;;16.70;9.40;;;;;;;;;;5002064;28;25064;-77
2023/04/19 01:07:52;;;;;;;17.77;9.25;;;;;;;;;;4994795;28;25068;-81
2023/04/19 01:10:18;;;;;;;15.10;9.05;;;;;;;;;;5015723;28;25163;-76
2023/04/19 01:12:44;;;;;;;18.02;9.63;;;;;;;;;;5001042;28;25067;-78
2023/04/19 01:15:10;;;;;;;15.65;9.15;;;;;;;;;;4995875;28;25064;-77
2023/04/19 01:17:36;;;;;;;17.75;9.45;;;;;;;;;;5013612;28;25108;-81
2023/04/19 01:20:07;;;;;;;17.67;9.65;;;;;;;;;;4997941;28;25162;-77
2023/04/19 01:22:36;;;;;;;14.52;9.02;;;;;;;;;;5015226;28;25075;-77
2023/04/19 01:25:03;;;;;;;13.68;8.52;;;;;;;;;;5013590;28;25079;-79
2023/04/19 01:27:29;;;;;;;16.38;9.45;;;;;;;;;;5017067;28;25066;-78
2023/04/19 01:29:54;;;;;;;17.63;9.98;;;;;;;;;;5019524;28;25099;-78
2023/04/19 01:32:21;;;;;;;16.27;9.38;;;;;;;;;;5024008;28;25067;-78
2023/04/19 01:34:47;;;;;;;18.42;11.48;;;;;;;;;;5019089;28;25082;-73
2023/04/19 01:37:13;;;;;;;15.15;9.45;;;;;;;;;;5018645;28;25068;-77
2023/04/19 01:39:39;;;;;;;13.68;9.07;;;;;;;;;;5015048;28;25103;-72
2023/04/19 01:42:05;;;;;;;20.02;9.70;;;;;;;;;;5025659;28;25052;-76
2023/04/19 01:44:31;;;;;;;14.55;9.38;;;;;;;;;;5022865;28;25133;-77
2023/04/19 01:46:57;;;;;;;19.45;10.07;;;;;;;;;;5000344;28;25088;-76
2023/04/19 01:49:23;;;;;;;18.30;9.95;;;;;;;;;;5017310;28;25146;-77
2023/04/19 01:51:49;;;;;;;15.93;9.38;;;;;;;;;;5020199;28;25147;-74
2023/04/19 01:54:15;;;;;;;17.17;8.95;;;;;;;;;;5011324;28;25088;-79
2023/04/19 01:56:41;;;;;;;14.98;9.25;;;;;;;;;;5009716;28;25082;-80
2023/04/19 01:59:07;;;;;;;19.88;9.93;;;;;;;;;;4996346;28;25056;-75
2023/04/19 02:01:33;;;;;;;16.63;9.38;;;;;;;;;;5007138;28;25076;-77
2023/04/19 02:04:01;;;;;;;17.55;10.02;;;;;;;;;;5001143;28;25069;-76
2023/04/19 02:06:27;;;;;;;18.35;10.02;;;;;;;;;;5022889;28;25161;-78
2023/04/19 02:08:53;;;;;;;16.85;9.25;;;;;;;;;;5010831;28;25085;-77
2023/04/19 02:11:19;;;;;;;18.23;10.30;;;;;;;;;;5021513;28;25068;-77
2023/04/19 02:13:45;;;;;;;18.77;9.93;;;;;;;;;;5020068;28;25093;-76
2023/04/19 02:16:11;;;;;;;16.85;9.57;;;;;;;;;;5016547;28;25101;-74
2023/04/19 02:18:38;;;;;;;16.67;9.75;;;;;;;;;;5010742;28;25079;-73
2023/04/19 02:21:04;;;;;;;18.75;10.60;;;;;;;;;;5019665;28;25061;-77
2023/04/19 02:23:30;;;;;;;16.48;10.63;;;;;;;;;;5016097;28;25054;-75
2023/04/19 02:25:56;;;;;;;16.58;9.20;;;;;;;;;;5026772;28;25092;-77
2023/04/19 02:28:22;;;;;;;20.20;11.27;;;;;;;;;;5021411;28;25117;-77
2023/04/19 02:30:48;;;;;;;18.17;10.45;;;;;;;;;;5024558;28;25081;-77
2023/04/19 02:33:15;;;;;;;18.08;10.20;;;;;;;;;;5015267;28;25105;-77
2023/04/19 02:35:41;;;;;;;17.20;9.32;;;;;;;;;;5022602;28;25144;-75
2023/04/19 02:38:07;;;;;;;15.85;9.45;;;;;;;;;;5023408;28;25092;-78
2023/04/19 02:40:33;;;;;;;13.90;9.45;;;;;;;;;;5015301;28;25073;-76
2023/04/19 02:42:59;;;;;;;15.07;10.07;;;;;;;;;;5017548;28;25060;-76
2023/04/19 02:45:25;;;;;;;16.10;9.95;;;;;;;;;;5026749;28;25091;-76
2023/04/19 02:47:51;;;;;;;19.55;10.52;;;;;;;;;;5017741;28;25150;-76
2023/04/19 02:50:17;;;;;;;17.52;10.80;;;;;;;;;;5009848;28;25056;-76
2023/04/19 02:52:43;;;;;;;17.33;10.43;;;;;;;;;;4998734;28;25096;-76
2023/04/19 02:55:09;;;;;;;15.38;9.38;;;;;;;;;;5020131;28;25093;-79
2023/04/19 02:57:35;;;;;;;19.10;11.15;;;;;;;;;;5015393;28;25059;-77
2023/04/19 03:00:01;;;;;;;17.10;10.20;;;;;;;;;;5008357;28;25055;-76
2023/04/19 03:02:27;;;;;;;19.25;10.30;;;;;;;;;;5015341;28;25120;-76
2023/04/19 03:04:54;;;;;;;15.65;9.85;;;;;;;;;;5006145;28;25164;-77
2023/04/19 03:07:20;;;;;;;19.20;10.50;;;;;;;;;;5015226;28;25057;-79
2023/04/19 03:09:46;;;;;;;18.30;10.00;;;;;;;;;;5000191;28;25073;-76
2023/04/19 03:12:12;;;;;;;14.68;9.60;;;;;;;;;;5015602;28;25115;-79
2023/04/19 03:14:38;;;;;;;15.93;10.05;;;;;;;;;;5026326;28;25054;-76
2023/04/19 03:17:04;;;;;;;16.55;9.50;;;;;;;;;;5021991;28;25075;-80
2023/04/19 03:19:30;;;;;;;19.23;10.00;;;;;;;;;;5010406;28;25069;-75
2023/04/19 03:21:56;;;;;;;19.10;10.48;;;;;;;;;;5022108;28;25084;-79
2023/04/19 03:24:29;;;;;;;18.17;10.32;;;;;;;;;;5021579;28;25070;-75
2023/04/19 03:26:55;;;;;;;16.38;10.52;;;;;;;;;;5020234;28;25077;-76
2023/04/19 03:29:21;;;;;;;19.48;10.05;;;;;;;;;;5026172;28;25075;-76
2023/04/19 03:31:47;;;;;;;19.25;10.20;;;;;;;;;;5004480;28;25110;-74
2023/04/19 03:34:13;;;;;;;19.17;10.32;;;;;;;;;;5013353;28;25175;-80
2023/04/19 03:36:40;;;;;;;15.13;9.73;;;;;;;;;;5019503;28;25067;-76
2023/04/19 03:39:06;;;;;;;19.58;10.48;;;;;;;;;;5014261;28;25058;-78
2023/04/19 03:41:32;;;;;;;18.45;11.40;;;;;;;;;;5011814;28;25082;-75
2023/04/19 03:43:58;;;;;;;19.58;10.35;;;;;;;;;;5022348;28;25090;-77
2023/04/19 03:46:25;;;;;;;18.65;10.50;;;;;;;;;;5028151;28;25068;-75
2023/04/19 03:48:52;;;;;;;18.55;10.15;;;;;;;;;;5016435;28;25084;-78
2023/04/19 03:51:18;;;;;;;17.15;9.80;;;;;;;;;;5016367;28;25059;-77
2023/04/19 03:53:44;;;;;;;16.58;10.10;;;;;;;;;;5016315;28;25082;-75
2023/04/19 03:56:10;;;;;;;18.05;10.88;;;;;;;;;;5009612;28;25080;-74
2023/04/19 03:58:36;;;;;;;18.90;10.88;;;;;;;;;;5013074;28;25062;-77
2023/04/19 04:01:02;;;;;;;14.63;9.88;;;;;;;;;;5000428;28;25057;-75
2023/04/19 04:03:28;;;;;;;19.77;10.23;;;;;;;;;;5014984;28;25085;-76
2023/04/19 04:05:54;;;;;;;20.00;9.98;;;;;;;;;;5012539;28;25170;-76
2023/04/19 04:08:20;;;;;;;17.55;10.13;;;;;;;;;;5013702;28;25106;-75
2023/04/19 04:10:46;;;;;;;21.40;10.80;;;;;;;;;;4997967;28;25066;-77
2023/04/19 04:13:12;;;;;;;15.75;9.90;;;;;;;;;;5016531;28;25102;-76
2023/04/19 04:15:38;;;;;;;13.50;8.82;;;;;;;;;;4991814;28;25077;-77
2023/04/19 04:18:04;;;;;;;16.23;9.77;;;;;;;;;;4997930;28;25160;-76
2023/04/19 04:20:30;;;;;;;18.48;10.00;;;;;;;;;;5010828;28;25081;-77
2023/04/19 04:22:57;;;;;;;17.92;10.43;;;;;;;;;;4992396;28;25138;-75
2023/04/19 04:25:24;;;;;;;18.48;10.70;;;;;;;;;;4994456;28;25061;-73
2023/04/19 04:27:53;;;;;;;17.80;9.85;;;;;;;;;;5016753;28;25107;-77
2023/04/19 04:30:19;;;;;;;15.60;9.88;;;;;;;;;;5005703;28;25051;-77
2023/04/19 04:32:46;;;;;;;15.88;10.15;;;;;;;;;;5014913;28;24704;-75
2023/04/19 04:35:12;;;;;;;16.55;9.50;;;;;;;;;;5018974;28;25057;-74
2023/04/19 04:37:39;;;;;;;15.20;9.70;;;;;;;;;;5008479;28;25076;-73
2023/04/19 04:40:05;;;;;;;14.40;8.70;;;;;;;;;;5012596;28;25061;-73
2023/04/19 04:42:31;;;;;;;15.10;9.50;;;;;;;;;;5011023;28;25062;-74
2023/04/19 04:45:00;;;;;;;15.85;9.68;;;;;;;;;;5008396;28;25077;-73
2023/04/19 04:47:30;;;;;;;21.42;9.63;;;;;;;;;;5018133;28;25075;-76
2023/04/19 04:49:56;;;;;;;16.08;9.75;;;;;;;;;;5012875;28;25054;-74
2023/04/19 04:52:22;;;;;;;18.50;9.77;;;;;;;;;;5016439;28;25073;-76
2023/04/19 04:54:48;;;;;;;15.38;9.60;;;;;;;;;;5012434;28;25067;-79
2023/04/19 04:57:14;;;;;;;19.63;8.35;;;;;;;;;;4994980;28;25064;-78
2023/04/19 04:59:40;;;;;;;15.70;9.02;;;;;;;;;;4998599;28;25157;-77
2023/04/19 05:02:06;;;;;;;15.63;9.27;;;;;;;;;;5009625;28;25074;-75
2023/04/19 05:04:32;;;;;;;16.85;8.95;;;;;;;;;;5006822;28;25076;-77
2023/04/19 05:06:58;;;;;;;17.10;9.73;;;;;;;;;;5010456;28;25098;-77
2023/04/19 05:09:24;;;;;;;13.70;9.20;;;;;;;;;;5018653;28;25134;-76
2023/04/19 05:11:50;;;;;;;15.93;10.18;;;;;;;;;;5025819;28;25054;-76
2023/04/19 05:14:16;;;;;;;16.90;8.65;;;;;;;;;;5006419;28;25086;-75
2023/04/19 05:16:42;;;;;;;15.40;8.98;;;;;;;;;;4995054;28;25066;-76
2023/04/19 05:19:08;;;;;;;18.20;8.32;;;;;;;;;;5013196;28;25101;-78
2023/04/19 05:21:34;;;;;;;15.40;8.65;;;;;;;;;;5009726;28;25064;-78
2023/04/19 05:24:00;;;;;;;14.77;9.32;;;;;;;;;;5010825;28;25064;-76
2023/04/19 05:26:26;;;;;;;14.35;7.57;;;;;;;;;;5016720;28;25072;-75
2023/04/19 05:28:52;;;;;;;16.98;8.68;;;;;;;;;;5016711;28;25108;-77
2023/04/19 05:31:19;;;;;;;15.38;9.15;;;;;;;;;;5032986;28;25078;-76
2023/04/19 05:33:45;;;;;;;15.52;7.80;;;;;;;;;;5005081;28;25137;-76
2023/04/19 05:36:11;;;;;;;16.33;9.02;;;;;;;;;;4987717;28;25068;-77
2023/04/19 05:38:37;;;;;;;16.23;9.43;;;;;;;;;;4996221;28;25059;-74
2023/04/19 05:41:03;;;;;;;17.60;8.65;;;;;;;;;;5005261;28;25088;-75
2023/04/19 05:43:29;;;;;;;14.60;8.40;;;;;;;;;;5012269;28;25057;-76
2023/04/19 05:45:56;;;;;;;15.85;8.50;;;;;;;;;;5028067;28;25073;-75
2023/04/19 05:48:21;;;;;;;14.48;8.75;;;;;;;;;;5018811;28;25065;-74
2023/04/19 05:50:48;;;;;;;14.23;7.95;;;;;;;;;;5010961;28;25111;-73
2023/04/19 05:53:14;;;;;;;16.67;8.25;;;;;;;;;;5010602;28;25110;-76
2023/04/19 05:55:40;;;;;;;14.57;7.20;;;;;;;;;;5011477;28;25065;-76
2023/04/19 05:58:06;;;;;;;16.92;8.50;;;;;;;;;;5014272;28;25091;-78
2023/04/19 06:00:32;;;;;;;13.95;7.80;;;;;;;;;;5034502;28;25059;-79
2023/04/19 06:02:58;;;;;;;15.65;8.13;;;;;;;;;;5024629;28;25154;-80
2023/04/19 06:05:24;;;;;;;12.98;7.30;;;;;;;;;;4996750;28;25065;-78
2023/04/19 06:07:50;;;;;;;16.88;7.65;;;;;;;;;;5027175;28;25102;-76
2023/04/19 06:10:16;;;;;;;14.63;8.18;;;;;;;;;;5025776;28;25091;-77
2023/04/19 06:12:42;;;;;;;12.48;6.88;;;;;;;;;;5024819;28;25094;-76
2023/04/19 06:15:08;;;;;;;13.13;7.57;;;;;;;;;;5016320;28;25081;-77
2023/04/19 06:17:34;;;;;;;11.18;6.78;;;;;;;;;;4999968;28;25148;-76
2023/04/19 06:20:06;;;;;;;12.73;6.63;;;;;;;;;;5013437;28;25147;-77
2023/04/19 06:22:32;;;;;;;11.50;7.60;;;;;;;;;;5009715;28;25052;-75
2023/04/19 06:24:58;;;;;;;13.52;7.90;;;;;;;;;;5004996;28;25196;-75
2023/04/19 06:27:24;;;;;;;14.27;6.43;;;;;;;;;;5009212;28;25086;-76
2023/04/19 06:29:50;;;;;;;11.07;6.80;;;;;;;;;;4996527;28;25062;-74
2023/04/19 06:32:16;;;;;;;14.10;7.55;;;;;;;;;;5007403;28;25103;-75
2023/04/19 06:34:41;;;;;;;11.43;6.35;;;;;;;;;;5010364;28;25077;-78
2023/04/19 06:37:07;;;;;;;15.48;7.63;;;;;;;;;;5009585;28;25067;-80
2023/04/19 06:39:34;;;;;;;10.98;6.55;;;;;;;;;;5017035;28;25073;-78
2023/04/19 06:42:01;;;;;;;11.48;6.72;;;;;;;;;;5018008;28;25104;-78
2023/04/19 06:44:27;;;;;;;9.85;6.07;;;;;;;;;;5015685;28;25069;-77
2023/04/19 06:46:53;;;;;;;14.20;6.35;;;;;;;;;;5013534;28;25077;-77
2023/04/19 06:49:19;;;;;;;15.05;6.72;;;;;;;;;;5019676;28;25153;-77
2023/04/19 06:51:45;;;;;;;12.38;6.40;;;;;;;;;;5005400;28;25062;-76
2023/04/19 06:54:11;;;;;;;13.38;6.68;;;;;;;;;;5010059;28;25097;-77
2023/04/19 06:56:46;;;;;;;13.43;6.70;;;;;;;;;;4992562;28;25166;-80
2023/04/19 06:59:13;;;;;;;8.48;5.45;;;;;;;;;;4995197;28;25059;-80
2023/04/19 07:01:40;;;;;;;15.20;6.55;;;;;;;;;;4990170;28;25139;-74
2023/04/19 07:04:07;;;;;;;10.02;6.35;;;;;;;;;;5021034;28;25067;-78
2023/04/19 07:06:33;;;;;;;10.10;5.68;;;;;;;;;;5022977;28;25074;-76
2023/04/19 07:09:00;;;;;;;12.68;6.05;;;;;;;;;;5009405;28;25066;-73
2023/04/19 07:11:25;;;;;;;8.82;5.75;;;;;;;;;;5023742;28;25130;-74
2023/04/19 07:13:51;;;;;;;9.13;5.88;;;;;;;;;;4995886;28;25060;-77
2023/04/19 07:16:17;;;;;;;8.77;5.15;;;;;;;;;;5013582;28;25175;-78
2023/04/19 07:18:43;;;;;;;13.10;6.18;;;;;;;;;;5002267;28;25058;-76
2023/04/19 07:21:10;;;;;;;9.70;5.03;;;;;;;;;;5001188;28;25072;-73
2023/04/19 07:23:36;;;;;;;8.82;5.28;;;;;;;;;;5012478;28;25097;-76
2023/04/19 07:26:02;;;;;;;12.13;6.32;;;;;;;;;;5038991;28;25096;-79
2023/04/19 07:28:28;;;;;;;10.63;5.55;;;;;;;;;;5035369;28;25095;-74
2023/04/19 07:30:54;;;;;;;9.60;5.85;;;;;;;;;;5003622;28;26186;-75
2023/04/19 07:33:22;;;;;;;10.30;5.50;;;;;;;;;;5001265;28;25070;-75
2023/04/19 07:35:48;;;;;;;11.45;5.95;;;;;;;;;;5021953;28;25102;-80
2023/04/19 07:38:14;;;;;;;10.43;5.88;;;;;;;;;;5019737;28;25058;-79
2023/04/19 07:40:40;;;;;;;9.77;5.20;;;;;;;;;;5020853;28;25064;-77
2023/04/19 07:43:06;;;;;;;7.55;5.13;;;;;;;;;;5023829;28;25078;-79
2023/04/19 07:45:32;;;;;;;10.10;5.22;;;;;;;;;;5005704;28;25071;-78
2023/04/19 07:47:58;;;;;;;8.93;5.57;;;;;;;;;;5022718;28;25066;-80
2023/04/19 07:50:27;;;;;;;12.05;5.80;;;;;;;;;;5023116;28;25080;-82
2023/04/19 07:52:53;;;;;;;7.22;4.97;;;;;;;;;;5033820;28;25070;-80
2023/04/19 07:55:20;;;;;;;9.18;5.63;;;;;;;;;;5027093;28;25141;-77
2023/04/19 07:57:47;;;;;;;9.23;5.55;;;;;;;;;;5016514;28;25143;-75
2023/04/19 08:00:14;;;;;;;12.20;5.40;;;;;;;;;;5015178;28;25123;-76
2023/04/19 08:02:42;;;;;;;9.15;5.88;;;;;;;;;;5014973;28;25072;-75
2023/04/19 08:05:09;;;;;;;8.18;5.40;;;;;;;;;;5018378;28;25064;-74
2023/04/19 08:07:35;;;;;;;8.48;4.82;;;;;;;;;;5005972;28;25067;-78
2023/04/19 08:10:01;;;;;;;12.85;5.10;;;;;;;;;;4996753;28;25102;-77
2023/04/19 08:12:27;;;;;;;11.48;4.93;;;;;;;;;;5003518;28;25076;-76
2023/04/19 08:14:53;;;;;;;6.63;4.22;;;;;;;;;;5007947;28;25077;-76
2023/04/19 08:17:20;;;;;;;8.73;4.32;;;;;;;;;;4995054;28;25074;-76
2023/04/19 08:19:48;;;;;;;11.23;5.28;;;;;;;;;;5009331;28;25132;-75
2023/04/19 08:22:15;;;;;;;8.57;4.47;;;;;;;;;;4997944;28;25055;-77
2023/04/19 08:24:41;;;;;;;9.75;4.50;;;;;;;;;;5005479;28;25059;-74
2023/04/19 08:27:07;;;;;;;11.50;4.70;;;;;;;;;;5009710;28;25175;-75
2023/04/19 08:29:33;;;;;;;10.27;4.57;;;;;;;;;;5020314;28;25102;-74
2023/04/19 08:31:59;;;;;;;8.45;4.07;;;;;;;;;;5015631;28;25057;-77
2023/04/19 08:34:24;;;;;;;5.30;3.63;;;;;;;;;;5009148;28;25155;-71
2023/04/19 08:36:50;;;;;;;11.52;4.90;;;;;;;;;;4996263;28;25063;-76
2023/04/19 08:39:17;;;;;;;10.43;3.95;;;;;;;;;;5004077;28;25078;-76
2023/04/19 08:41:43;;;;;;;6.95;4.30;;;;;;;;;;5011514;28;25050;-75
2023/04/19 08:44:11;;;;;;;6.15;3.72;;;;;;;;;;5009493;28;25066;-76
2023/04/19 08:46:37;;;;;;;7.80;3.92;;;;;;;;;;4992714;28;25069;-74
2023/04/19 08:49:05;;;;;;;8.63;4.03;;;;;;;;;;5007851;28;25067;-77
2023/04/19 08:51:34;;;;;;;7.20;3.78;;;;;;;;;;5009810;28;25065;-73
2023/04/19 08:54:01;;;;;;;6.97;3.45;;;;;;;;;;4984934;28;25087;-73
2023/04/19 08:56:27;;;;;;;20.70;5.00;;;;;;;;;;4992286;28;25063;-73
2023/04/19 08:58:53;;;;;;;16.42;3.92;;;;;;;;;;5011309;28;25166;-77
2023/04/19 09:01:20;;;;;;;6.72;3.50;;;;;;;;;;5011834;28;25175;-74
2023/04/19 09:03:46;;;;;;;7.40;3.20;;;;;;;;;;4991465;28;25105;-72
2023/04/19 09:06:12;;;;;;;7.22;3.22;;;;;;;;;;5009457;28;25139;-75
2023/04/19 09:08:38;;;;;;;5.35;3.20;;;;;;;;;;5010204;28;25140;-76
2023/04/19 09:11:04;;;;;;;7.13;3.20;;;;;;;;;;5007819;28;25073;-72
2023/04/19 09:13:31;;;;;;;6.80;3.35;;;;;;;;;;5007638;28;25089;-76
2023/04/19 09:15:59;;;;;;;5.97;3.33;;;;;;;;;;5008912;28;25060;-74
2023/04/19 09:18:25;;;;;;;4.25;2.92;;;;;;;;;;5011995;28;25053;-77
2023/04/19 09:20:57;;;;;;;3.78;2.72;;;;;;;;;;5005315;28;25030;-74
2023/04/19 09:23:24;;;;;;;5.63;2.80;;;;;;;;;;5013592;28;25066;-73
2023/04/19 09:26:00;;;;;;;6.93;2.35;;;;;;;;;;5017744;28;25062;-71
2023/04/19 09:28:29;;;;;;;7.68;2.97;;;;;;;;;;5016083;28;25040;-71
2023/04/19 09:30:56;;;;;;;6.50;2.92;;;;;;;;;;5005101;28;25137;-76
2023/04/19 09:33:32;;;;;;;3.95;2.80;;;;;;;;;;5011907;28;25085;-73
2023/04/19 09:35:58;;;;;;;5.28;2.95;;;;;;;;;;5011095;28;25059;-72
2023/04/19 09:38:25;;;;;;;4.60;2.63;;;;;;;;;;5007657;28;25068;-74
2023/04/19 09:40:51;;;;;;;5.72;2.55;;;;;;;;;;5017909;28;25101;-72
2023/04/19 09:43:26;;;;;;;5.18;2.88;;;;;;;;;;5012194;28;25061;-72
2023/04/19 09:45:52;;;;;;;6.18;3.28;;;;;;;;;;5010321;28;25064;-76
2023/04/19 09:48:18;;;;;;;6.47;3.05;;;;;;;;;;4992607;28;25080;-75
2023/04/19 09:50:52;;;;;;;9.43;2.65;;;;;;;;;;5017506;28;25077;-74
2023/04/19 09:53:19;;;;;;;5.15;3.10;;;;;;;;;;5004018;28;25175;-72
2023/04/19 09:55:46;;;;;;;5.88;2.53;;;;;;;;;;5015569;28;25068;-73
2023/04/19 09:58:12;;;;;;;5.43;2.92;;;;;;;;;;5012724;28;25070;-72
2023/04/19 10:00:40;;;;;;;6.18;3.20;;;;;;;;;;5008015;28;25147;-74
2023/04/19 10:03:08;;;;;;;7.55;3.20;;;;;;;;;;5019732;28;25095;-74
2023/04/19 10:05:36;;;;;;;3.20;2.45;;;;;;;;;;5010764;28;25116;-73
2023/04/19 10:08:02;;;;;;;4.22;2.67;;;;;;;;;;5013733;28;25069;-74
2023/04/19 10:10:29;;;;;;;7.28;3.67;;;;;;;;;;5008001;28;25085;-74
2023/04/19 10:12:57;;;;;;;2.47;2.17;;;;;;;;;;5007081;28;25067;-73
2023/04/19 10:15:23;;;;;;;2.90;2.13;;;;;;;;;;5009412;28;25079;-73
2023/04/19 10:17:49;;;;;;;5.38;2.20;;;;;;;;;;5011815;28;25085;-74
2023/04/19 10:20:42;;;;;;;3.40;2.10;;;;;;;;;;5009375;28;25155;-74
2023/04/19 10:23:08;;;;;;;5.93;2.80;;;;;;;;;;4996907;28;25106;-76
2023/04/19 10:25:36;;;;;;;6.38;2.95;;;;;;;;;;5016832;28;25129;-72
2023/04/19 10:28:02;;;;;;;9.20;2.30;;;;;;;;;;5022253;28;25077;-73
2023/04/19 10:30:28;;;;;;;3.92;2.22;;;;;;;;;;5015217;28;25065;-74
2023/04/19 10:32:58;;;;;;;2.78;1.73;;;;;;;;;;5021226;28;25069;-76
2023/04/19 10:35:25;;;;;;;5.82;1.92;;;;;;;;;;5022506;28;25089;-70
2023/04/19 10:38:08;;;;;;;3.05;1.98;;;;;;;;;;5016381;28;25085;-69
2023/04/19 10:40:55;;;;;;;7.57;1.63;;;;;;;;;;5016871;28;25139;-72
2023/04/19 10:43:24;;;;;;;2.58;1.58;;;;;;;;;;5020822;28;25061;-72
2023/04/19 10:45:51;;;;;;;2.28;1.60;;;;;;;;;;5018948;28;25054;-73
2023/04/19 10:48:26;;;;;;;2.33;1.67;;;;;;;;;;4994156;28;25050;-71
2023/04/19 10:51:06;;;;;;;1.80;1.48;;;;;;;;;;5022949;28;25082;-71
2023/04/19 10:53:44;;;;;;;1.50;1.40;;;;;;;;;;5015952;28;25061;-72
2023/04/19 10:56:10;;;;;;;2.78;1.60;;;;;;;;;;5001516;28;25063;-74
2023/04/19 10:58:55;;;;;;;1.15;0.90;;;;;;;;;;5013768;28;25108;-72
2023/04/19 11:01:36;;;;;;;3.80;1.30;;;;;;;;;;5017899;28;25068;-74
2023/04/19 11:04:03;;;;;;;1.10;1.00;;;;;;;;;;5007155;28;25046;-72
2023/04/19 11:06:29;;;;;;;1.80;1.20;;;;;;;;;;5019173;28;25062;-71
2023/04/19 11:08:56;;;;;;;4.00;1.15;;;;;;;;;;5007007;28;25058;-72
2023/04/19 11:11:24;;;;;;;4.18;1.20;;;;;;;;;;5022798;28;25149;-73
2023/04/19 11:13:52;;;;;;;2.78;1.20;;;;;;;;;;5017178;28;25146;-70
2023/04/19 11:16:18;;;;;;;2.00;1.13;;;;;;;;;;5015634;28;25083;-74
2023/04/19 11:18:44;;;;;;;1.85;0.98;;;;;;;;;;5007145;28;25147;-73
2023/04/19 11:21:15;;;;;;;10.30;1.17;;;;;;;;;;5011203;28;25083;-71
2023/04/19 11:23:41;;;;;;;2.53;1.23;;;;;;;;;;5018549;28;25063;-72
2023/04/19 11:26:13;;;;;;;7.57;1.27;;;;;;;;;;5017374;28;25076;-74
2023/04/19 11:28:39;;;;;;;6.47;1.42;;;;;;;;;;5011905;28;25098;-74
2023/04/19 11:31:05;;;;;;;1.90;1.38;;;;;;;;;;5014046;28;25092;-73
2023/04/19 11:33:35;;;;;;;6.47;1.70;;;;;;;;;;5017971;28;25081;-72
2023/04/19 11:36:01;;;;;;;1.95;1.60;;;;;;;;;;5008841;28;25068;-74
2023/04/19 11:38:27;;;;;;;3.58;1.75;;;;;;;;;;5019255;28;25065;-71
2023/04/19 11:41:00;;;;;;;1.77;1.52;;;;;;;;;;5010090;28;25080;-75
2023/04/19 11:43:33;;;;;;;2.70;1.67;;;;;;;;;;5010006;28;25080;-71
2023/04/19 11:46:05;;;;;;;4.20;2.00;;;;;;;;;;5018408;28;25066;-72
2023/04/19 11:48:31;;;;;;;2.30;1.52;;;;;;;;;;5012928;28;25065;-72
2023/04/19 11:50:58;;;;;;;2.58;1.27;;;;;;;;;;5016170;28;25056;-70
2023/04/19 11:53:25;;;;;;;4.10;1.60;;;;;;;;;;5000086;28;25133;-74
2023/04/19 11:55:52;;;;;;;2.78;1.40;;;;;;;;;;5014494;28;25109;-70
2023/04/19 11:58:27;;;;;;;4.45;2.58;;;;;;;;;;4983754;28;25066;-72
2023/04/19 12:00:54;;;;;;;4.60;1.65;;;;;;;;;;5002072;28;25078;-73
2023/04/19 12:03:21;;;;;;;3.17;1.50;;;;;;;;;;5015262;28;25095;-72
2023/04/19 12:05:58;;;;;;;5.30;1.58;;;;;;;;;;5004961;28;25056;-73
2023/04/19 12:08:31;;;;;;;3.38;1.50;;;;;;;;;;5010299;28;25087;-73
2023/04/19 12:10:57;;;;;;;2.95;1.40;;;;;;;;;;5009279;28;25081;-72
2023/04/19 12:13:24;;;;;;;1.95;1.35;;;;;;;;;;5009162;28;25085;-73
2023/04/19 12:15:50;;;;;;;2.67;1.60;;;;;;;;;;5006881;28;25056;-71
2023/04/19 12:18:16;;;;;;;2.08;1.38;;;;;;;;;;5012000;28;25152;-72
2023/04/19 12:20:46;;;;;;;3.88;1.42;;;;;;;;;;4997714;28;25083;-71
2023/04/19 12:23:14;;;;;;;2.17;1.70;;;;;;;;;;5002527;28;25061;-73
2023/04/19 12:25:41;;;;;;;2.28;1.63;;;;;;;;;;5011773;28;25113;-72
2023/04/19 12:28:07;;;;;;;2.33;1.35;;;;;;;;;;5010140;28;25109;-73
2023/04/19 12:30:34;;;;;;;2.47;1.83;;;;;;;;;;4983889;28;25168;-73
2023/04/19 12:33:00;;;;;;;1.88;1.60;;;;;;;;;;5004672;28;25126;-77
2023/04/19 12:35:26;;;;;;;4.93;1.40;;;;;;;;;;5007035;28;25064;-73
2023/04/19 12:37:53;;;;;;;4.32;1.60;;;;;;;;;;5007950;28;25073;-72
2023/04/19 12:40:19;;;;;;;1.58;1.02;;;;;;;;;;4995535;28;25073;-70
2023/04/19 12:42:45;;;;;;;1.35;1.20;;;;;;;;;;5013664;28;25062;-72
2023/04/19 12:45:12;;;;;;;4.20;1.80;;;;;;;;;;5012122;28;25068;-72
2023/04/19 12:47:38;;;;;;;2.65;1.80;;;;;;;;;;5010285;28;25063;-74
2023/04/19 12:50:04;;;;;;;1.65;1.30;;;;;;;;;;5001932;28;25086;-71
2023/04/19 12:52:30;;;;;;;4.50;1.38;;;;;;;;;;5013322;28;25069;-72
2023/04/19 12:54:56;;;;;;;2.45;1.38;;;;;;;;;;5014751;28;25151;-72
2023/04/19 12:57:22;;;;;;;5.40;1.60;;;;;;;;;;5005093;28;25075;-72
2023/04/19 12:59:48;;;;;;;1.73;1.10;;;;;;;;;;5014896;28;25057;-72
2023/04/19 13:02:14;;;;;;;4.38;1.65;;;;;;;;;;4991810;28;25068;-74
2023/04/19 13:04:40;;;;;;;5.47;1.90;;;;;;;;;;4994827;28;25065;-72
2023/04/19 13:07:06;;;;;;;1.55;1.42;;;;;;;;;;5014017;28;25078;-71
2023/04/19 13:09:32;;;;;;;1.88;1.75;;;;;;;;;;5011121;28;25109;-72
2023/04/19 13:11:58;;;;;;;3.63;1.73;;;;;;;;;;5007514;28;25109;-70
2023/04/19 13:14:27;;;;;;;2.30;1.63;;;;;;;;;;5012736;28;25123;-72
2023/04/19 13:16:54;;;;;;;2.90;1.35;;;;;;;;;;5019534;28;25079;-74
2023/04/19 13:19:20;;;;;;;5.85;1.33;;;;;;;;;;5025249;28;25114;-74
2023/04/19 13:21:46;;;;;;;4.20;1.80;;;;;;;;;;5016362;28;25091;-73
2023/04/19 13:24:12;;;;;;;4.35;1.60;;;;;;;;;;5028055;28;25116;-74
2023/04/19 13:26:38;;;;;;;4.82;1.77;;;;;;;;;;5014248;28;25162;-72
2023/04/19 13:29:04;;;;;;;4.47;1.63;;;;;;;;;;5022709;28;25056;-72
2023/04/19 13:31:30;;;;;;;3.95;2.05;;;;;;;;;;5030915;28;25085;-73
2023/04/19 13:33:56;;;;;;;2.42;1.70;;;;;;;;;;5026631;28;25068;-75
2023/04/19 13:36:22;;;;;;;3.90;1.65;;;;;;;;;;5036808;28;25083;-73
2023/04/19 13:38:48;;;;;;;3.35;2.03;;;;;;;;;;5027582;28;25072;-75
2023/04/19 13:41:14;;;;;;;3.30;1.90;;;;;;;;;;5015652;28;25140;-71
2023/04/19 13:43:40;;;;;;;3.60;1.70;;;;;;;;;;5025259;28;25075;-74
2023/04/19 13:46:06;;;;;;;3.75;1.83;;;;;;;;;;5026092;28;25082;-75
2023/04/19 13:48:32;;;;;;;4.63;2.28;;;;;;;;;;5016306;28;25076;-72
2023/04/19 13:50:58;;;;;;;3.00;1.73;;;;;;;;;;5017389;28;25117;-73
2023/04/19 13:53:25;;;;;;;5.30;1.80;;;;;;;;;;5008250;28;25096;-70
2023/04/19 13:55:51;;;;;;;5.15;1.95;;;;;;;;;;5014705;28;25098;-70
2023/04/19 13:58:17;;;;;;;4.15;2.05;;;;;;;;;;5021729;28;25133;-73
2023/04/19 14:00:44;;;;;;;6.25;2.85;;;;;;;;;;5020845;28;25079;-73
2023/04/19 14:03:10;;;;;;;2.63;2.20;;;;;;;;;;4110648;28;10000812;-72
2023/04/19 14:05:36;;;;;;;4.57;2.88;;;;;;;;;;4994206;28;25050;-74
2023/04/19 14:08:02;;;;;;;6.65;2.20;;;;;;;;;;4971668;28;25155;-73
2023/04/19 14:10:28;;;;;;;4.97;2.40;;;;;;;;;;4988194;28;25089;-74
2023/04/19 14:12:54;;;;;;;5.43;2.22;;;;;;;;;;4971678;28;25093;-72
2023/04/19 14:15:22;;;;;;;3.25;2.30;;;;;;;;;;4995840;28;25073;-73
2023/04/19 14:17:48;;;;;;;5.00;2.00;;;;;;;;;;4977029;28;25050;-73
2023/04/19 14:20:14;;;;;;;4.32;2.38;;;;;;;;;;4992414;28;25154;-76
2023/04/19 14:22:40;;;;;;;4.50;2.17;;;;;;;;;;4987700;28;25118;-75
2023/04/19 14:25:06;;;;;;;7.38;2.70;;;;;;;;;;4962974;28;25085;-72
2023/04/19 14:27:33;;;;;;;5.13;2.60;;;;;;;;;;4914469;28;171335;-71
2023/04/19 14:29:58;;;;;;;4.32;2.17;;;15.10;1.00;;;;;;4952951;29;25086;-74
2023/04/19 14:32:24;;;;;;;6.20;2.03;;;;;;;;;;4947200;29;25068;-75